sensor_id;sensor_type;location;lat;lon;timestamp;P1;durP1;ratioP1;P2;durP2;ratioP2
24867;SDS011;12941;48.698;9.310;2024-03-02T00:00:35;13.5;;;9.9;;
24867;SDS011;12941;48.698;9.310;2024-03-02T00:01:39;13.5;;;9.9;;
24867;SDS011;12941;48.698;9.310;2024-03-02T00:02:40;11.4;;;10.1;;
24867;SDS011;12941;48.698;9.310;2024-03-02T00:03:45;11.4;;;10.1;;
24867;SDS011;12941;48.698;9.310;2024-03-02T00:04:49;11.4;;;10.1;;
24867;SDS011;12941;48.698;9.310;2024-03-02T00:05:55;11.4;;;10.1;;
24867;SDS011;12941;48.698;9.310;2024-03-02T00:06:55;11.4;;;9.1;;
24867;SDS011;12941;48.698;9.310;2024-03-02T00:08:00;11.4;;;9.1;;
24867;SDS011;12941;48.698;9.310;2024-03-02T00:09:00;11.4;;;9.1;;
24867;SDS011;12941;48.698;9.310;2024-03-02T00:10:05;11.4;;;9.1;;
24867;SDS011;12941;48.698;9.310;2024-03-02T00:11:05;11.4;;;9.1;;
24867;SDS011;12941;48.698;9.310;2024-03-02T00:12:10;11.4;;;9.1;;
24867;SDS011;12941;48.698;9.310;2024-03-02T00:13:10;11.4;;;9.1;;
24867;SDS011;12941;48.698;9.310;2024-03-02T00:14:15;11.4;;;9.1;;
24867;SDS011;12941;48.698;9.310;2024-03-02T00:15:27;11.4;;;9.1;;
24867;SDS011;12941;48.698;9.310;2024-03-02T00:16:27;11.4;;;9.1;;
24867;SDS011;12941;48.698;9.310;2024-03-02T00:17:30;13.7;;;9.5;;
24867;SDS011;12941;48.698;9.310;2024-03-02T00:18:35;13.7;;;9.5;;
24867;SDS011;12941;48.698;9.310;2024-03-02T00:19:38;13.7;;;9.5;;
24867;SDS011;12941;48.698;9.310;2024-03-02T00:20:40;13.7;;;9.5;;
24867;SDS011;12941;48.698;9.310;2024-03-02T00:21:40;13.7;;;9.5;;
24867;SDS011;12941;48.698;9.310;2024-03-02T00:22:45;12.6;;;9.3;;
24867;SDS011;12941;48.698;9.310;2024-03-02T00:23:45;12.6;;;9.3;;
24867;SDS011;12941;48.698;9.310;2024-03-02T00:24:49;12.6;;;9.3;;
24867;SDS011;12941;48.698;9.310;2024-03-02T00:25:55;12.6;;;9.3;;
24867;SDS011;12941;48.698;9.310;2024-03-02T00:27:00;12.5;;;9.3;;
24867;SDS011;12941;48.698;9.310;2024-03-02T00:28:05;12.5;;;9.3;;
24867;SDS011;12941;48.698;9.310;2024-03-02T00:29:05;12.5;;;9.3;;
24867;SDS011;12941;48.698;9.310;2024-03-02T00:30:13;12.5;;;9.3;;
24867;SDS011;12941;48.698;9.310;2024-03-02T00:31:15;12.5;;;9.3;;
24867;SDS011;12941;48.698;9.310;2024-03-02T00:32:15;13.9;;;9.7;;
24867;SDS011;12941;48.698;9.310;2024-03-02T00:33:20;13.9;;;9.7;;
24867;SDS011;12941;48.698;9.310;2024-03-02T00:34:20;13.9;;;9.7;;
24867;SDS011;12941;48.698;9.310;2024-03-02T00:35:20;13.9;;;9.7;;
24867;SDS011;12941;48.698;9.310;2024-03-02T00:36:22;13.9;;;9.7;;
24867;SDS011;12941;48.698;9.310;2024-03-02T00:37:25;13;;;9.8;;
24867;SDS011;12941;48.698;9.310;2024-03-02T00:38:30;13;;;9.8;;
24867;SDS011;12941;48.698;9.310;2024-03-02T00:39:30;13;;;9.8;;
24867;SDS011;12941;48.698;9.310;2024-03-02T00:40:30;13;;;9.8;;
24867;SDS011;12941;48.698;9.310;2024-03-02T00:41:30;13;;;9.8;;
24867;SDS011;12941;48.698;9.310;2024-03-02T00:42:35;13.3;;;9.9;;
24867;SDS011;12941;48.698;9.310;2024-03-02T00:43:42;13.3;;;9.9;;
24867;SDS011;12941;48.698;9.310;2024-03-02T00:44:35;13.3;;;9.9;;
24867;SDS011;12941;48.698;9.310;2024-03-02T00:45:40;13.3;;;9.9;;
24867;SDS011;12941;48.698;9.310;2024-03-02T00:46:45;16.5;;;12.3;;
24867;SDS011;12941;48.698;9.310;2024-03-02T00:47:50;16.5;;;12.3;;
24867;SDS011;12941;48.698;9.310;2024-03-02T00:48:55;16.5;;;12.3;;
24867;SDS011;12941;48.698;9.310;2024-03-02T00:49:55;16.5;;;12.3;;
24867;SDS011;12941;48.698;9.310;2024-03-02T00:50:55;16.5;;;12.3;;
24867;SDS011;12941;48.698;9.310;2024-03-02T00:52:00;17;;;12.3;;
24867;SDS011;12941;48.698;9.310;2024-03-02T00:53:00;17;;;12.3;;
24867;SDS011;12941;48.698;9.310;2024-03-02T00:54:00;17;;;12.3;;
24867;SDS011;12941;48.698;9.310;2024-03-02T00:55:05;17;;;12.3;;
24867;SDS011;12941;48.698;9.310;2024-03-02T00:56:10;17;;;12.3;;
24867;SDS011;12941;48.698;9.310;2024-03-02T00:57:15;14.8;;;11.3;;
24867;SDS011;12941;48.698;9.310;2024-03-02T00:58:15;14.8;;;11.3;;
24867;SDS011;12941;48.698;9.310;2024-03-02T00:59:20;14.8;;;11.3;;
24867;SDS011;12941;48.698;9.310;2024-03-02T01:00:20;14.8;;;11.3;;
24867;SDS011;12941;48.698;9.310;2024-03-02T01:01:20;14.8;;;11.3;;
24867;SDS011;12941;48.698;9.310;2024-03-02T01:02:25;13.6;;;10.2;;
24867;SDS011;12941;48.698;9.310;2024-03-02T01:03:30;13.6;;;10.2;;
24867;SDS011;12941;48.698;9.310;2024-03-02T01:04:35;13.6;;;10.2;;
24867;SDS011;12941;48.698;9.310;2024-03-02T01:05:35;13.6;;;10.2;;
24867;SDS011;12941;48.698;9.310;2024-03-02T01:06:35;13.6;;;10.2;;
24867;SDS011;12941;48.698;9.310;2024-03-02T01:07:40;14.7;;;10.6;;
24867;SDS011;12941;48.698;9.310;2024-03-02T01:08:40;14.7;;;10.6;;
24867;SDS011;12941;48.698;9.310;2024-03-02T01:09:45;14.7;;;10.6;;
24867;SDS011;12941;48.698;9.310;2024-03-02T01:10:45;14.7;;;10.6;;
24867;SDS011;12941;48.698;9.310;2024-03-02T01:11:49;12.8;;;10.2;;
24867;SDS011;12941;48.698;9.310;2024-03-02T01:12:50;12.8;;;10.2;;
24867;SDS011;12941;48.698;9.310;2024-03-02T01:13:55;12.8;;;10.2;;
24867;SDS011;12941;48.698;9.310;2024-03-02T01:15:00;12.8;;;10.2;;
24867;SDS011;12941;48.698;9.310;2024-03-02T01:16:00;12.8;;;10.2;;
24867;SDS011;12941;48.698;9.310;2024-03-02T01:17:00;15.9;;;11.5;;
24867;SDS011;12941;48.698;9.310;2024-03-02T01:18:05;15.9;;;11.5;;
24867;SDS011;12941;48.698;9.310;2024-03-02T01:19:10;15.9;;;11.5;;
24867;SDS011;12941;48.698;9.310;2024-03-02T01:20:10;15.9;;;11.5;;
24867;SDS011;12941;48.698;9.310;2024-03-02T01:21:15;15.9;;;11.5;;
24867;SDS011;12941;48.698;9.310;2024-03-02T01:22:15;14.6;;;10.8;;
24867;SDS011;12941;48.698;9.310;2024-03-02T01:23:15;14.6;;;10.8;;
24867;SDS011;12941;48.698;9.310;2024-03-02T01:24:20;14.6;;;10.8;;
24867;SDS011;12941;48.698;9.310;2024-03-02T01:25:20;14.6;;;10.8;;
24867;SDS011;12941;48.698;9.310;2024-03-02T01:26:25;14.6;;;10.8;;
24867;SDS011;12941;48.698;9.310;2024-03-02T01:27:30;14.3;;;10.1;;
24867;SDS011;12941;48.698;9.310;2024-03-02T01:28:30;14.3;;;10.1;;
24867;SDS011;12941;48.698;9.310;2024-03-02T01:29:35;14.3;;;10.1;;
24867;SDS011;12941;48.698;9.310;2024-03-02T01:30:35;14.3;;;10.1;;
24867;SDS011;12941;48.698;9.310;2024-03-02T01:31:35;14.3;;;10.1;;
24867;SDS011;12941;48.698;9.310;2024-03-02T01:32:40;13.2;;;9.7;;
24867;SDS011;12941;48.698;9.310;2024-03-02T01:33:40;13.2;;;9.7;;
24867;SDS011;12941;48.698;9.310;2024-03-02T01:34:40;13.2;;;9.7;;
24867;SDS011;12941;48.698;9.310;2024-03-02T01:35:40;13.2;;;9.7;;
24867;SDS011;12941;48.698;9.310;2024-03-02T01:36:40;13.2;;;9.7;;
24867;SDS011;12941;48.698;9.310;2024-03-02T01:37:45;12.1;;;9.5;;
24867;SDS011;12941;48.698;9.310;2024-03-02T01:38:45;12.1;;;9.5;;
24867;SDS011;12941;48.698;9.310;2024-03-02T01:39:45;12.1;;;9.5;;
24867;SDS011;12941;48.698;9.310;2024-03-02T01:40:45;12.1;;;9.5;;
24867;SDS011;12941;48.698;9.310;2024-03-02T01:41:45;14;;;9.7;;
24867;SDS011;12941;48.698;9.310;2024-03-02T01:42:50;14.1;;;9.8;;
24867;SDS011;12941;48.698;9.310;2024-03-02T01:43:50;14.1;;;9.8;;
24867;SDS011;12941;48.698;9.310;2024-03-02T01:44:50;14.1;;;9.8;;
24867;SDS011;12941;48.698;9.310;2024-03-02T01:45:50;14.1;;;9.8;;
24867;SDS011;12941;48.698;9.310;2024-03-02T01:46:55;14.2;;;10.1;;
24867;SDS011;12941;48.698;9.310;2024-03-02T01:47:55;14.2;;;10.1;;
24867;SDS011;12941;48.698;9.310;2024-03-02T01:48:55;14.2;;;10.1;;
24867;SDS011;12941;48.698;9.310;2024-03-02T01:50:00;14.2;;;10.1;;
24867;SDS011;12941;48.698;9.310;2024-03-02T01:51:00;14.2;;;10.1;;
24867;SDS011;12941;48.698;9.310;2024-03-02T01:52:00;14.8;;;10.2;;
24867;SDS011;12941;48.698;9.310;2024-03-02T01:53:00;14.8;;;10.2;;
24867;SDS011;12941;48.698;9.310;2024-03-02T01:54:05;14.8;;;10.2;;
24867;SDS011;12941;48.698;9.310;2024-03-02T01:55:05;14.8;;;10.2;;
24867;SDS011;12941;48.698;9.310;2024-03-02T01:56:05;14.8;;;10.2;;
24867;SDS011;12941;48.698;9.310;2024-03-02T01:57:05;15.5;;;10.4;;
24867;SDS011;12941;48.698;9.310;2024-03-02T01:58:05;15.5;;;10.4;;
24867;SDS011;12941;48.698;9.310;2024-03-02T01:59:10;15.5;;;10.4;;
24867;SDS011;12941;48.698;9.310;2024-03-02T02:00:10;15.5;;;10.4;;
24867;SDS011;12941;48.698;9.310;2024-03-02T02:01:10;15.5;;;10.4;;
24867;SDS011;12941;48.698;9.310;2024-03-02T02:02:10;14.1;;;9.9;;
24867;SDS011;12941;48.698;9.310;2024-03-02T02:03:10;14.1;;;9.9;;
24867;SDS011;12941;48.698;9.310;2024-03-02T02:04:10;14.1;;;9.9;;
24867;SDS011;12941;48.698;9.310;2024-03-02T02:05:15;14.1;;;9.9;;
24867;SDS011;12941;48.698;9.310;2024-03-02T02:06:15;14.1;;;9.9;;
24867;SDS011;12941;48.698;9.310;2024-03-02T02:07:15;12.1;;;9.3;;
24867;SDS011;12941;48.698;9.310;2024-03-02T02:08:20;12.1;;;9.3;;
24867;SDS011;12941;48.698;9.310;2024-03-02T02:09:25;12.1;;;9.3;;
24867;SDS011;12941;48.698;9.310;2024-03-02T02:10:25;12.1;;;9.3;;
24867;SDS011;12941;48.698;9.310;2024-03-02T02:11:25;12.1;;;9.3;;
24867;SDS011;12941;48.698;9.310;2024-03-02T02:12:30;14.2;;;10.5;;
24867;SDS011;12941;48.698;9.310;2024-03-02T02:13:30;14.2;;;10.5;;
24867;SDS011;12941;48.698;9.310;2024-03-02T02:14:30;14.2;;;10.5;;
24867;SDS011;12941;48.698;9.310;2024-03-02T02:15:35;14.2;;;10.5;;
24867;SDS011;12941;48.698;9.310;2024-03-02T02:16:35;14.2;;;10.5;;
24867;SDS011;12941;48.698;9.310;2024-03-02T02:17:35;14.7;;;9.9;;
24867;SDS011;12941;48.698;9.310;2024-03-02T02:18:40;14.7;;;9.9;;
24867;SDS011;12941;48.698;9.310;2024-03-02T02:19:40;14.7;;;9.9;;
24867;SDS011;12941;48.698;9.310;2024-03-02T02:20:40;14.7;;;9.9;;
24867;SDS011;12941;48.698;9.310;2024-03-02T02:21:41;14.7;;;9.9;;
24867;SDS011;12941;48.698;9.310;2024-03-02T02:22:40;13.3;;;9.9;;
24867;SDS011;12941;48.698;9.310;2024-03-02T02:23:45;13.3;;;9.9;;
24867;SDS011;12941;48.698;9.310;2024-03-02T02:24:45;13.3;;;9.9;;
24867;SDS011;12941;48.698;9.310;2024-03-02T02:25:50;13.3;;;9.9;;
24867;SDS011;12941;48.698;9.310;2024-03-02T02:26:55;13.9;;;10;;
24867;SDS011;12941;48.698;9.310;2024-03-02T02:27:56;13.9;;;10;;
24867;SDS011;12941;48.698;9.310;2024-03-02T02:29:00;13.9;;;10;;
24867;SDS011;12941;48.698;9.310;2024-03-02T02:30:00;13.9;;;10;;
24867;SDS011;12941;48.698;9.310;2024-03-02T02:31:00;13.9;;;10;;
24867;SDS011;12941;48.698;9.310;2024-03-02T02:32:05;13;;;10;;
24867;SDS011;12941;48.698;9.310;2024-03-02T02:33:10;13;;;10;;
24867;SDS011;12941;48.698;9.310;2024-03-02T02:34:10;13;;;10;;
24867;SDS011;12941;48.698;9.310;2024-03-02T02:35:15;13;;;10;;
24867;SDS011;12941;48.698;9.310;2024-03-02T02:36:15;13;;;10;;
24867;SDS011;12941;48.698;9.310;2024-03-02T02:37:20;13.7;;;10.3;;
24867;SDS011;12941;48.698;9.310;2024-03-02T02:38:20;13.7;;;10.3;;
24867;SDS011;12941;48.698;9.310;2024-03-02T02:39:21;13.7;;;10.3;;
24867;SDS011;12941;48.698;9.310;2024-03-02T02:40:20;13.7;;;10.3;;
24867;SDS011;12941;48.698;9.310;2024-03-02T02:41:25;13.7;;;10.3;;
24867;SDS011;12941;48.698;9.310;2024-03-02T02:42:25;13.1;;;10.1;;
24867;SDS011;12941;48.698;9.310;2024-03-02T02:43:25;13.1;;;10.1;;
24867;SDS011;12941;48.698;9.310;2024-03-02T02:44:25;13.1;;;10.1;;
24867;SDS011;12941;48.698;9.310;2024-03-02T02:45:25;13.1;;;10.1;;
24867;SDS011;12941;48.698;9.310;2024-03-02T02:46:25;13.1;;;10.1;;
24867;SDS011;12941;48.698;9.310;2024-03-02T02:47:25;15.2;;;10.8;;
24867;SDS011;12941;48.698;9.310;2024-03-02T02:48:25;15.2;;;10.8;;
24867;SDS011;12941;48.698;9.310;2024-03-02T02:49:30;15.2;;;10.8;;
24867;SDS011;12941;48.698;9.310;2024-03-02T02:50:30;15.2;;;10.8;;
24867;SDS011;12941;48.698;9.310;2024-03-02T02:51:35;15.2;;;10.8;;
24867;SDS011;12941;48.698;9.310;2024-03-02T02:52:41;14.3;;;10.1;;
24867;SDS011;12941;48.698;9.310;2024-03-02T02:53:40;14.3;;;10.1;;
24867;SDS011;12941;48.698;9.310;2024-03-02T02:54:45;14.3;;;10.1;;
24867;SDS011;12941;48.698;9.310;2024-03-02T02:55:45;14.3;;;10.1;;
24867;SDS011;12941;48.698;9.310;2024-03-02T02:56:49;14.7;;;10.5;;
24867;SDS011;12941;48.698;9.310;2024-03-02T02:57:50;14.7;;;10.5;;
24867;SDS011;12941;48.698;9.310;2024-03-02T02:58:50;14.7;;;10.5;;
24867;SDS011;12941;48.698;9.310;2024-03-02T02:59:50;14.7;;;10.5;;
24867;SDS011;12941;48.698;9.310;2024-03-02T03:00:50;14.7;;;10.5;;
24867;SDS011;12941;48.698;9.310;2024-03-02T03:01:51;17.6;;;11.3;;
24867;SDS011;12941;48.698;9.310;2024-03-02T03:02:55;17.6;;;11.3;;
24867;SDS011;12941;48.698;9.310;2024-03-02T03:03:55;17.6;;;11.3;;
24867;SDS011;12941;48.698;9.310;2024-03-02T03:05:00;17.6;;;11.3;;
24867;SDS011;12941;48.698;9.310;2024-03-02T03:06:05;17.6;;;11.3;;
24867;SDS011;12941;48.698;9.310;2024-03-02T03:07:10;14.4;;;10.4;;
24867;SDS011;12941;48.698;9.310;2024-03-02T03:08:10;14.4;;;10.4;;
24867;SDS011;12941;48.698;9.310;2024-03-02T03:09:10;14.4;;;10.4;;
24867;SDS011;12941;48.698;9.310;2024-03-02T03:10:15;14.4;;;10.4;;
24867;SDS011;12941;48.698;9.310;2024-03-02T03:11:15;14.4;;;10.4;;
24867;SDS011;12941;48.698;9.310;2024-03-02T03:12:15;14.4;;;9.6;;
24867;SDS011;12941;48.698;9.310;2024-03-02T03:13:15;14.4;;;9.6;;
24867;SDS011;12941;48.698;9.310;2024-03-02T03:14:20;14.4;;;9.6;;
24867;SDS011;12941;48.698;9.310;2024-03-02T03:15:20;14.4;;;9.6;;
24867;SDS011;12941;48.698;9.310;2024-03-02T03:16:20;14.4;;;9.6;;
24867;SDS011;12941;48.698;9.310;2024-03-02T03:17:21;13.7;;;9.3;;
24867;SDS011;12941;48.698;9.310;2024-03-02T03:18:20;13.7;;;9.3;;
24867;SDS011;12941;48.698;9.310;2024-03-02T03:19:20;13.7;;;9.3;;
24867;SDS011;12941;48.698;9.310;2024-03-02T03:20:25;13.7;;;9.3;;
24867;SDS011;12941;48.698;9.310;2024-03-02T03:21:30;13.7;;;9.3;;
24867;SDS011;12941;48.698;9.310;2024-03-02T03:22:31;12.4;;;9.5;;
24867;SDS011;12941;48.698;9.310;2024-03-02T03:23:31;12.4;;;9.5;;
24867;SDS011;12941;48.698;9.310;2024-03-02T03:24:35;12.4;;;9.5;;
24867;SDS011;12941;48.698;9.310;2024-03-02T03:25:35;12.4;;;9.5;;
24867;SDS011;12941;48.698;9.310;2024-03-02T03:26:40;12.4;;;9.5;;
24867;SDS011;12941;48.698;9.310;2024-03-02T03:27:45;13.8;;;9.6;;
24867;SDS011;12941;48.698;9.310;2024-03-02T03:28:45;13.8;;;9.6;;
24867;SDS011;12941;48.698;9.310;2024-03-02T03:29:45;13.8;;;9.6;;
24867;SDS011;12941;48.698;9.310;2024-03-02T03:30:50;13.8;;;9.6;;
24867;SDS011;12941;48.698;9.310;2024-03-02T03:31:50;14.3;;;10;;
24867;SDS011;12941;48.698;9.310;2024-03-02T03:32:50;14.3;;;10;;
24867;SDS011;12941;48.698;9.310;2024-03-02T03:33:50;14.3;;;10;;
24867;SDS011;12941;48.698;9.310;2024-03-02T03:34:50;14.3;;;10;;
24867;SDS011;12941;48.698;9.310;2024-03-02T03:35:55;14.3;;;10;;
24867;SDS011;12941;48.698;9.310;2024-03-02T03:37:00;12.9;;;10;;
24867;SDS011;12941;48.698;9.310;2024-03-02T03:38:05;12.9;;;10;;
24867;SDS011;12941;48.698;9.310;2024-03-02T03:39:11;12.9;;;10;;
24867;SDS011;12941;48.698;9.310;2024-03-02T03:40:11;12.9;;;10;;
24867;SDS011;12941;48.698;9.310;2024-03-02T03:41:15;12.9;;;10;;
24867;SDS011;12941;48.698;9.310;2024-03-02T03:42:15;13.4;;;10.5;;
24867;SDS011;12941;48.698;9.310;2024-03-02T03:43:20;13.4;;;10.5;;
24867;SDS011;12941;48.698;9.310;2024-03-02T03:44:20;13.4;;;10.5;;
24867;SDS011;12941;48.698;9.310;2024-03-02T03:45:26;13.4;;;10.5;;
24867;SDS011;12941;48.698;9.310;2024-03-02T03:46:26;13.4;;;10.5;;
24867;SDS011;12941;48.698;9.310;2024-03-02T03:47:31;13.6;;;10.4;;
24867;SDS011;12941;48.698;9.310;2024-03-02T03:48:30;13.6;;;10.4;;
24867;SDS011;12941;48.698;9.310;2024-03-02T03:49:35;13.6;;;10.4;;
24867;SDS011;12941;48.698;9.310;2024-03-02T03:50:36;13.6;;;10.4;;
24867;SDS011;12941;48.698;9.310;2024-03-02T03:51:40;13.6;;;10.4;;
24867;SDS011;12941;48.698;9.310;2024-03-02T03:52:46;13;;;9.2;;
24867;SDS011;12941;48.698;9.310;2024-03-02T03:53:46;13;;;9.2;;
24867;SDS011;12941;48.698;9.310;2024-03-02T03:54:51;13;;;9.2;;
24867;SDS011;12941;48.698;9.310;2024-03-02T03:55:55;13;;;9.2;;
24867;SDS011;12941;48.698;9.310;2024-03-02T03:56:55;13;;;10.1;;
24867;SDS011;12941;48.698;9.310;2024-03-02T03:57:55;13;;;10.1;;
24867;SDS011;12941;48.698;9.310;2024-03-02T03:59:01;13;;;10.1;;
24867;SDS011;12941;48.698;9.310;2024-03-02T04:00:06;13;;;10.1;;
24867;SDS011;12941;48.698;9.310;2024-03-02T04:01:06;13;;;10.1;;
24867;SDS011;12941;48.698;9.310;2024-03-02T04:02:11;11.7;;;9.4;;
24867;SDS011;12941;48.698;9.310;2024-03-02T04:03:11;11.7;;;9.4;;
24867;SDS011;12941;48.698;9.310;2024-03-02T04:04:16;11.7;;;9.4;;
24867;SDS011;12941;48.698;9.310;2024-03-02T04:05:16;11.7;;;9.4;;
24867;SDS011;12941;48.698;9.310;2024-03-02T04:06:21;11.7;;;9.4;;
24867;SDS011;12941;48.698;9.310;2024-03-02T04:07:26;12.5;;;9.4;;
24867;SDS011;12941;48.698;9.310;2024-03-02T04:08:26;12.5;;;9.4;;
24867;SDS011;12941;48.698;9.310;2024-03-02T04:09:31;12.5;;;9.4;;
24867;SDS011;12941;48.698;9.310;2024-03-02T04:10:31;12.5;;;9.4;;
24867;SDS011;12941;48.698;9.310;2024-03-02T04:11:31;12.5;;;9.4;;
24867;SDS011;12941;48.698;9.310;2024-03-02T04:12:31;15.1;;;9.5;;
24867;SDS011;12941;48.698;9.310;2024-03-02T04:13:36;15.1;;;9.5;;
24867;SDS011;12941;48.698;9.310;2024-03-02T04:14:41;15.1;;;9.5;;
24867;SDS011;12941;48.698;9.310;2024-03-02T04:15:41;15.1;;;9.5;;
24867;SDS011;12941;48.698;9.310;2024-03-02T04:16:41;15.1;;;9.5;;
24867;SDS011;12941;48.698;9.310;2024-03-02T04:17:46;12.4;;;9;;
24867;SDS011;12941;48.698;9.310;2024-03-02T04:18:51;12.4;;;9;;
24867;SDS011;12941;48.698;9.310;2024-03-02T04:19:56;12.4;;;9;;
24867;SDS011;12941;48.698;9.310;2024-03-02T04:20:56;12.4;;;9;;
24867;SDS011;12941;48.698;9.310;2024-03-02T04:22:01;12;;;9.3;;
24867;SDS011;12941;48.698;9.310;2024-03-02T04:23:01;12;;;9.3;;
24867;SDS011;12941;48.698;9.310;2024-03-02T04:24:06;12;;;9.3;;
24867;SDS011;12941;48.698;9.310;2024-03-02T04:25:06;12;;;9.3;;
24867;SDS011;12941;48.698;9.310;2024-03-02T04:26:11;12;;;9.3;;
24867;SDS011;12941;48.698;9.310;2024-03-02T04:27:16;12.4;;;9.6;;
24867;SDS011;12941;48.698;9.310;2024-03-02T04:28:21;12.4;;;9.6;;
24867;SDS011;12941;48.698;9.310;2024-03-02T04:29:26;12.4;;;9.6;;
24867;SDS011;12941;48.698;9.310;2024-03-02T04:30:31;12.4;;;9.6;;
24867;SDS011;12941;48.698;9.310;2024-03-02T04:31:31;12.4;;;9.6;;
24867;SDS011;12941;48.698;9.310;2024-03-02T04:32:36;13.8;;;9.7;;
24867;SDS011;12941;48.698;9.310;2024-03-02T04:33:41;13.8;;;9.7;;
24867;SDS011;12941;48.698;9.310;2024-03-02T04:34:41;13.8;;;9.7;;
24867;SDS011;12941;48.698;9.310;2024-03-02T04:35:46;13.8;;;9.7;;
24867;SDS011;12941;48.698;9.310;2024-03-02T04:36:50;12;;;9.1;;
24867;SDS011;12941;48.698;9.310;2024-03-02T04:37:51;12;;;9.1;;
24867;SDS011;12941;48.698;9.310;2024-03-02T04:38:51;12;;;9.1;;
24867;SDS011;12941;48.698;9.310;2024-03-02T04:39:51;12;;;9.1;;
24867;SDS011;12941;48.698;9.310;2024-03-02T04:40:56;12;;;9.1;;
24867;SDS011;12941;48.698;9.310;2024-03-02T04:41:56;14.8;;;10;;
24867;SDS011;12941;48.698;9.310;2024-03-02T04:43:01;14.8;;;10;;
24867;SDS011;12941;48.698;9.310;2024-03-02T04:44:06;14.8;;;10;;
24867;SDS011;12941;48.698;9.310;2024-03-02T04:45:06;14.8;;;10;;
24867;SDS011;12941;48.698;9.310;2024-03-02T04:46:11;14.8;;;10;;
24867;SDS011;12941;48.698;9.310;2024-03-02T04:47:11;14.2;;;10;;
24867;SDS011;12941;48.698;9.310;2024-03-02T04:48:16;14.2;;;10;;
24867;SDS011;12941;48.698;9.310;2024-03-02T04:49:16;14.2;;;10;;
24867;SDS011;12941;48.698;9.310;2024-03-02T04:50:16;14.2;;;10;;
24867;SDS011;12941;48.698;9.310;2024-03-02T04:51:21;14.2;;;10;;
24867;SDS011;12941;48.698;9.310;2024-03-02T04:52:21;12.7;;;9.5;;
24867;SDS011;12941;48.698;9.310;2024-03-02T04:53:26;12.7;;;9.5;;
24867;SDS011;12941;48.698;9.310;2024-03-02T04:54:31;12.7;;;9.5;;
24867;SDS011;12941;48.698;9.310;2024-03-02T04:55:36;12.7;;;9.5;;
24867;SDS011;12941;48.698;9.310;2024-03-02T04:56:36;12.7;;;9.5;;
24867;SDS011;12941;48.698;9.310;2024-03-02T04:57:36;12.9;;;10;;
24867;SDS011;12941;48.698;9.310;2024-03-02T04:58:36;12.9;;;10;;
24867;SDS011;12941;48.698;9.310;2024-03-02T04:59:36;12.9;;;10;;
24867;SDS011;12941;48.698;9.310;2024-03-02T05:00:41;12.9;;;10;;
24867;SDS011;12941;48.698;9.310;2024-03-02T05:01:41;12.9;;;10;;
24867;SDS011;12941;48.698;9.310;2024-03-02T05:02:41;13.8;;;10;;
24867;SDS011;12941;48.698;9.310;2024-03-02T05:03:46;13.8;;;10;;
24867;SDS011;12941;48.698;9.310;2024-03-02T05:04:51;13.8;;;10;;
24867;SDS011;12941;48.698;9.310;2024-03-02T05:05:56;13.8;;;10;;
24867;SDS011;12941;48.698;9.310;2024-03-02T05:07:01;13.5;;;10;;
24867;SDS011;12941;48.698;9.310;2024-03-02T05:08:06;13.5;;;10;;
24867;SDS011;12941;48.698;9.310;2024-03-02T05:09:06;13.5;;;10;;
24867;SDS011;12941;48.698;9.310;2024-03-02T05:10:11;13.5;;;10;;
24867;SDS011;12941;48.698;9.310;2024-03-02T05:11:11;13.5;;;10;;
24867;SDS011;12941;48.698;9.310;2024-03-02T05:12:16;13.6;;;9.6;;
24867;SDS011;12941;48.698;9.310;2024-03-02T05:13:21;13.6;;;9.6;;
24867;SDS011;12941;48.698;9.310;2024-03-02T05:14:26;13.6;;;9.6;;
24867;SDS011;12941;48.698;9.310;2024-03-02T05:15:31;13.6;;;9.6;;
24867;SDS011;12941;48.698;9.310;2024-03-02T05:16:36;13.6;;;9.6;;
24867;SDS011;12941;48.698;9.310;2024-03-02T05:17:36;12.9;;;8.7;;
24867;SDS011;12941;48.698;9.310;2024-03-02T05:18:36;12.9;;;8.7;;
24867;SDS011;12941;48.698;9.310;2024-03-02T05:19:41;12.9;;;8.7;;
24867;SDS011;12941;48.698;9.310;2024-03-02T05:20:41;12.9;;;8.7;;
24867;SDS011;12941;48.698;9.310;2024-03-02T05:21:46;12.3;;;9.2;;
24867;SDS011;12941;48.698;9.310;2024-03-02T05:22:51;12.2;;;9.2;;
24867;SDS011;12941;48.698;9.310;2024-03-02T05:23:51;12.2;;;9.2;;
24867;SDS011;12941;48.698;9.310;2024-03-02T05:24:51;12.2;;;9.2;;
24867;SDS011;12941;48.698;9.310;2024-03-02T05:25:56;12.2;;;9.2;;
24867;SDS011;12941;48.698;9.310;2024-03-02T05:26:56;12;;;8.9;;
24867;SDS011;12941;48.698;9.310;2024-03-02T05:28:01;12;;;8.9;;
24867;SDS011;12941;48.698;9.310;2024-03-02T05:29:01;12;;;8.9;;
24867;SDS011;12941;48.698;9.310;2024-03-02T05:30:06;12;;;8.9;;
24867;SDS011;12941;48.698;9.310;2024-03-02T05:31:11;12;;;8.9;;
24867;SDS011;12941;48.698;9.310;2024-03-02T05:32:16;11.8;;;8.8;;
24867;SDS011;12941;48.698;9.310;2024-03-02T05:33:16;11.8;;;8.8;;
24867;SDS011;12941;48.698;9.310;2024-03-02T05:34:16;11.8;;;8.8;;
24867;SDS011;12941;48.698;9.310;2024-03-02T05:35:21;11.8;;;8.8;;
24867;SDS011;12941;48.698;9.310;2024-03-02T05:36:26;11.8;;;8.8;;
24867;SDS011;12941;48.698;9.310;2024-03-02T05:37:31;12.8;;;9.9;;
24867;SDS011;12941;48.698;9.310;2024-03-02T05:38:31;12.8;;;9.9;;
24867;SDS011;12941;48.698;9.310;2024-03-02T05:39:36;12.8;;;9.9;;
24867;SDS011;12941;48.698;9.310;2024-03-02T05:40:41;12.8;;;9.9;;
24867;SDS011;12941;48.698;9.310;2024-03-02T05:41:46;11.9;;;9.3;;
24867;SDS011;12941;48.698;9.310;2024-03-02T05:42:46;12.3;;;9.2;;
24867;SDS011;12941;48.698;9.310;2024-03-02T05:43:46;12.3;;;9.2;;
24867;SDS011;12941;48.698;9.310;2024-03-02T05:44:51;12.3;;;9.2;;
24867;SDS011;12941;48.698;9.310;2024-03-02T05:45:56;12.3;;;9.2;;
24867;SDS011;12941;48.698;9.310;2024-03-02T05:46:56;12;;;9.1;;
24867;SDS011;12941;48.698;9.310;2024-03-02T05:48:01;12;;;9.1;;
24867;SDS011;12941;48.698;9.310;2024-03-02T05:49:01;12;;;9.1;;
24867;SDS011;12941;48.698;9.310;2024-03-02T05:50:06;12;;;9.1;;
24867;SDS011;12941;48.698;9.310;2024-03-02T05:51:06;12;;;9.1;;
24867;SDS011;12941;48.698;9.310;2024-03-02T05:52:06;11.6;;;8.8;;
24867;SDS011;12941;48.698;9.310;2024-03-02T05:53:11;11.6;;;8.8;;
24867;SDS011;12941;48.698;9.310;2024-03-02T05:54:11;11.6;;;8.8;;
24867;SDS011;12941;48.698;9.310;2024-03-02T05:55:11;11.6;;;8.8;;
24867;SDS011;12941;48.698;9.310;2024-03-02T05:56:16;11.6;;;8.8;;
24867;SDS011;12941;48.698;9.310;2024-03-02T05:57:16;11.7;;;8.7;;
24867;SDS011;12941;48.698;9.310;2024-03-02T05:58:21;11.7;;;8.7;;
24867;SDS011;12941;48.698;9.310;2024-03-02T05:59:21;11.7;;;8.7;;
24867;SDS011;12941;48.698;9.310;2024-03-02T06:00:26;11.7;;;8.7;;
24867;SDS011;12941;48.698;9.310;2024-03-02T06:01:31;11.7;;;8.7;;
24867;SDS011;12941;48.698;9.310;2024-03-02T06:02:31;14;;;10;;
24867;SDS011;12941;48.698;9.310;2024-03-02T06:03:36;14;;;10;;
24867;SDS011;12941;48.698;9.310;2024-03-02T06:04:36;14;;;10;;
24867;SDS011;12941;48.698;9.310;2024-03-02T06:05:36;14;;;10;;
24867;SDS011;12941;48.698;9.310;2024-03-02T06:06:41;14;;;10;;
24867;SDS011;12941;48.698;9.310;2024-03-02T06:07:41;12.9;;;9.6;;
24867;SDS011;12941;48.698;9.310;2024-03-02T06:08:41;12.9;;;9.6;;
24867;SDS011;12941;48.698;9.310;2024-03-02T06:09:46;12.9;;;9.6;;
24867;SDS011;12941;48.698;9.310;2024-03-02T06:10:51;12.9;;;9.6;;
24867;SDS011;12941;48.698;9.310;2024-03-02T06:11:56;16;;;9.8;;
24867;SDS011;12941;48.698;9.310;2024-03-02T06:12:56;16;;;9.8;;
24867;SDS011;12941;48.698;9.310;2024-03-02T06:14:01;16;;;9.8;;
24867;SDS011;12941;48.698;9.310;2024-03-02T06:15:01;16;;;9.8;;
24867;SDS011;12941;48.698;9.310;2024-03-02T06:16:06;16;;;9.8;;
24867;SDS011;12941;48.698;9.310;2024-03-02T06:17:06;14.8;;;10.6;;
24867;SDS011;12941;48.698;9.310;2024-03-02T06:18:11;14.8;;;10.6;;
24867;SDS011;12941;48.698;9.310;2024-03-02T06:19:11;14.8;;;10.6;;
24867;SDS011;12941;48.698;9.310;2024-03-02T06:20:16;14.8;;;10.6;;
24867;SDS011;12941;48.698;9.310;2024-03-02T06:21:16;14.8;;;10.6;;
24867;SDS011;12941;48.698;9.310;2024-03-02T06:22:16;15;;;10.3;;